Portada
METAR-TAF:

METAR-TAF

Aeroports :

Plataforma petroliera

P11-b, Països Baixos

latitud: 52-21-36N, longitud: 3-20-30E, altitud: 24 m

Observació

L'informe es va fer fa 15 minuts, a les 20:25 UTC
Vent 19 kt del Sud, variant entre Sud i Sud-Oest
Temperatura 18°C
Humitat 83%
Pressió 1011 hPa
Visibilitat 10 km o més
Escasses núvols a una alçada de 2800 ft
Núvols disperses a una alçada de 3300 ft
Cel ennuvolat a una alçada de 3700 ft

METAR: EHPG 192025Z AUTO 19019KT 170V230 9999 FEW028 SCT033 BKN037 18/15 Q1011 W///H///

Hora: 22:40 (20:40 UTC)


TAF: manca

Observacions i pronòstics meteorològics de més de 4000 aeroports (METAR i TAF).

Les estacions disponibles són els punts grocs i vermells al mapa.

Posi el ratolí al punt desitjat per veure el nom de l'estació.

Feu clic per veure les observacions i els pronòstics meteorològics.

Per canviar el mapa: feu clic els botons verds amb una creu de color negre per apropar; al botó verd amb un guió per allunyar la imatge; o en les fletxes verdes per a mapes adjacents.


METAR-TAF: